Time;durP1;ratioP1;P1;durP2;ratioP2;P2;SDS_P1;SDS_P2;PMS_P1;PMS_P2;Temp;Humidity;BMP_temperature;BMP_pressure;BME280_temperature;BME280_humidity;BME280_pressure;Samples;Min_cycle;Max_cycle;Signal;HPM_P1;HPM_P2
2022/01/06 00:01:02;;;;;;;40.20;18.13;;;;;;;;;;5034869;28;20371;-69
2022/01/06 00:03:31;;;;;;;38.38;17.25;;;;;;;;;;5035860;28;20025;-69
2022/01/06 00:06:03;;;;;;;35.55;17.48;;;;;;;;;;5035911;28;20026;-69
2022/01/06 00:08:33;;;;;;;37.72;17.75;;;;;;;;;;5034630;28;20036;-69
2022/01/06 00:11:01;;;;;;;38.00;15.93;;;;;;;;;;5035793;28;20021;-69
2022/01/06 00:13:51;;;;;;;42.05;19.33;;;;;;;;;;5034733;28;20029;-69
2022/01/06 00:16:34;;;;;;;32.88;16.88;;;;;;;;;;5034675;28;20034;-69
2022/01/06 00:24:16;;;;;;;38.00;17.98;;;;;;;;;;5033993;28;20406;-69
2022/01/06 00:26:44;;;;;;;42.45;19.65;;;;;;;;;;5050287;28;20034;-69
2022/01/06 00:29:12;;;;;;;46.65;22.10;;;;;;;;;;5033701;28;20029;-69
2022/01/06 00:31:40;;;;;;;46.47;23.00;;;;;;;;;;5033788;28;20052;-69
2022/01/06 00:34:10;;;;;;;48.17;24.33;;;;;;;;;;5033801;28;20072;-69
2022/01/06 00:36:41;;;;;;;59.95;30.20;;;;;;;;;;5033558;28;20030;-69
2022/01/06 00:39:09;;;;;;;56.58;31.92;;;;;;;;;;5050107;28;20132;-69
2022/01/06 00:41:37;;;;;;;66.15;35.50;;;;;;;;;;5050608;28;20030;-69
2022/01/06 00:44:06;;;;;;;56.67;32.03;;;;;;;;;;5037335;28;20370;-69
2022/01/06 00:46:35;;;;;;;76.70;37.55;;;;;;;;;;5053848;28;20021;-69
2022/01/06 00:49:02;;;;;;;86.88;41.42;;;;;;;;;;5037172;28;20083;-68
2022/01/06 00:51:33;;;;;;;75.93;36.88;;;;;;;;;;5036739;28;20037;-69
2022/01/06 00:54:00;;;;;;;71.03;35.88;;;;;;;;;;5037071;28;20041;-68
2022/01/06 00:56:28;;;;;;;84.93;39.22;;;;;;;;;;5020333;28;20475;-68
2022/01/06 00:58:56;;;;;;;76.05;39.35;;;;;;;;;;5037071;28;20128;-68
2022/01/06 01:01:23;;;;;;;107.60;51.58;;;;;;;;;;5020609;28;20311;-68
2022/01/06 01:03:51;;;;;;;101.22;49.72;;;;;;;;;;5036928;28;20060;-68
2022/01/06 01:06:18;;;;;;;97.45;49.13;;;;;;;;;;5020204;28;20029;-69
2022/01/06 01:08:46;;;;;;;89.57;46.50;;;;;;;;;;5019010;28;20455;-68
2022/01/06 01:11:14;;;;;;;83.18;43.00;;;;;;;;;;5017117;28;20037;-68
2022/01/06 01:13:55;;;;;;;83.35;41.90;;;;;;;;;;5016999;28;20033;-69
2022/01/06 01:16:27;;;;;;;87.28;42.55;;;;;;;;;;5016844;28;20041;-68
2022/01/06 01:18:58;;;;;;;82.38;40.45;;;;;;;;;;5016955;28;20022;-68
2022/01/06 01:21:26;;;;;;;84.38;40.95;;;;;;;;;;5000412;28;20026;-68
2022/01/06 01:23:55;;;;;;;79.18;39.10;;;;;;;;;;4961430;28;20039;-68
2022/01/06 01:26:23;;;;;;;92.45;39.10;;;;;;;;;;4977728;28;20039;-68
2022/01/06 01:28:51;;;;;;;76.30;37.10;;;;;;;;;;4961483;28;20039;-68
2022/01/06 01:31:25;;;;;;;66.15;34.67;;;;;;;;;;4993715;28;20042;-68
2022/01/06 01:33:57;;;;;;;75.40;35.53;;;;;;;;;;4977581;28;20435;-68
2022/01/06 01:36:24;;;;;;;78.10;33.92;;;;;;;;;;4977332;28;20031;-67
2022/01/06 01:38:55;;;;;;;79.93;34.22;;;;;;;;;;4977454;28;20446;-68
2022/01/06 01:41:23;;;;;;;79.95;34.10;;;;;;;;;;4984116;28;20042;-67
2022/01/06 01:43:53;;;;;;;80.25;35.63;;;;;;;;;;4996602;28;20082;-68
2022/01/06 01:46:28;;;;;;;75.88;35.72;;;;;;;;;;4996735;28;20034;-70
2022/01/06 01:51:42;;;;;;;79.47;34.03;;;;;;;;;;4996561;28;20065;-68
2022/01/06 01:54:10;;;;;;;63.95;30.80;;;;;;;;;;4996123;28;20038;-68
2022/01/06 01:56:38;;;;;;;79.20;35.63;;;;;;;;;;4996526;28;20034;-69
2022/01/06 01:59:06;;;;;;;66.55;30.65;;;;;;;;;;4980296;28;20030;-69
2022/01/06 02:01:34;;;;;;;75.90;33.33;;;;;;;;;;4996066;28;20101;-70
2022/01/06 02:04:01;;;;;;;137.55;63.15;;;;;;;;;;4979847;28;20034;-70
2022/01/06 02:06:29;;;;;;;428.48;236.35;;;;;;;;;;4996031;28;20054;-69
2022/01/06 02:08:57;;;;;;;277.15;138.52;;;;;;;;;;5031226;28;20197;-68
2022/01/06 02:11:25;;;;;;;133.23;64.38;;;;;;;;;;5038419;28;20033;-69
2022/01/06 02:13:54;;;;;;;158.40;78.15;;;;;;;;;;5037227;28;20040;-67
2022/01/06 02:16:22;;;;;;;108.25;51.92;;;;;;;;;;5037036;28;20037;-66
2022/01/06 02:18:50;;;;;;;108.85;46.97;;;;;;;;;;5047461;28;20037;-66
2022/01/06 02:21:18;;;;;;;96.22;41.10;;;;;;;;;;5037500;28;20079;-67
2022/01/06 02:23:46;;;;;;;93.15;38.33;;;;;;;;;;5040956;28;20023;-67
2022/01/06 02:26:14;;;;;;;96.35;36.25;;;;;;;;;;5053366;28;20025;-69
2022/01/06 02:28:42;;;;;;;79.95;34.60;;;;;;;;;;5035885;28;20025;-69
2022/01/06 02:31:10;;;;;;;77.55;31.38;;;;;;;;;;5035815;28;20037;-68
2022/01/06 02:33:37;;;;;;;75.30;33.13;;;;;;;;;;5036858;28;20026;-70
2022/01/06 02:36:05;;;;;;;79.28;32.50;;;;;;;;;;5036737;28;20021;-69
2022/01/06 02:38:34;;;;;;;78.95;34.58;;;;;;;;;;5036854;28;20287;-69
2022/01/06 02:41:02;;;;;;;95.03;40.08;;;;;;;;;;5035700;28;20021;-68
2022/01/06 02:43:30;;;;;;;97.82;42.78;;;;;;;;;;5035150;28;20436;-67
2022/01/06 02:45:58;;;;;;;109.10;43.53;;;;;;;;;;5036263;28;20033;-67
2022/01/06 02:48:30;;;;;;;92.13;38.95;;;;;;;;;;5022733;28;20022;-66
2022/01/06 02:50:57;;;;;;;72.85;33.47;;;;;;;;;;5015440;28;20053;-67
2022/01/06 02:53:25;;;;;;;56.92;26.58;;;;;;;;;;5016457;28;20029;-67
2022/01/06 02:55:55;;;;;;;98.38;43.83;;;;;;;;;;5016123;28;20442;-69
2022/01/06 02:58:23;;;;;;;68.55;31.13;;;;;;;;;;5015106;28;20026;-72
2022/01/06 03:00:51;;;;;;;90.30;39.03;;;;;;;;;;5015293;28;20022;-70
2022/01/06 03:03:19;;;;;;;58.00;29.60;;;;;;;;;;5017087;28;20091;-69
2022/01/06 03:05:47;;;;;;;87.47;37.88;;;;;;;;;;5015525;28;20049;-69
2022/01/06 03:08:15;;;;;;;81.18;38.75;;;;;;;;;;5016393;28;20037;-69
2022/01/06 03:10:44;;;;;;;92.07;42.30;;;;;;;;;;5016349;28;20029;-71
2022/01/06 03:13:11;;;;;;;77.20;35.95;;;;;;;;;;5016151;28;20026;-69
2022/01/06 03:15:39;;;;;;;81.63;38.15;;;;;;;;;;5016204;28;20125;-70
2022/01/06 03:18:06;;;;;;;95.30;45.08;;;;;;;;;;5016410;28;20034;-70
2022/01/06 03:20:35;;;;;;;125.72;56.20;;;;;;;;;;5016212;28;20030;-69
2022/01/06 03:23:02;;;;;;;125.03;55.20;;;;;;;;;;5016211;28;20053;-70
2022/01/06 03:25:30;;;;;;;174.35;88.18;;;;;;;;;;5016120;28;20021;-69
2022/01/06 03:27:57;;;;;;;149.48;69.38;;;;;;;;;;5016094;28;20026;-69
2022/01/06 03:30:25;;;;;;;173.05;85.75;;;;;;;;;;5016041;28;20022;-69
2022/01/06 03:32:53;;;;;;;228.68;113.47;;;;;;;;;;5016112;28;20092;-69
2022/01/06 03:35:22;;;;;;;244.82;121.63;;;;;;;;;;5031168;28;20598;-69
2022/01/06 03:37:49;;;;;;;253.30;122.88;;;;;;;;;;5034376;28;20084;-68
2022/01/06 03:40:17;;;;;;;303.27;143.95;;;;;;;;;;5034816;28;20466;-68
2022/01/06 03:42:45;;;;;;;313.92;150.32;;;;;;;;;;5035992;28;20021;-70
2022/01/06 03:45:15;;;;;;;314.05;148.65;;;;;;;;;;5035001;28;20109;-68
2022/01/06 03:47:44;;;;;;;324.38;155.98;;;;;;;;;;5035585;28;20022;-69
2022/01/06 03:50:12;;;;;;;330.10;162.90;;;;;;;;;;5035257;28;20045;-68
2022/01/06 03:52:39;;;;;;;327.98;158.80;;;;;;;;;;5034405;28;20040;-69
2022/01/06 03:55:10;;;;;;;386.15;186.10;;;;;;;;;;5035509;28;20049;-69
2022/01/06 03:57:40;;;;;;;419.08;208.07;;;;;;;;;;5033237;28;20042;-69
2022/01/06 04:00:09;;;;;;;374.80;191.02;;;;;;;;;;5032906;28;20033;-70
2022/01/06 04:02:37;;;;;;;367.77;184.88;;;;;;;;;;5033854;28;20057;-69
2022/01/06 04:05:06;;;;;;;345.02;167.25;;;;;;;;;;5034034;28;20116;-68
2022/01/06 04:07:33;;;;;;;278.30;136.90;;;;;;;;;;5034711;28;20022;-69
2022/01/06 04:10:01;;;;;;;287.65;138.93;;;;;;;;;;5032231;28;20101;-69
2022/01/06 04:12:29;;;;;;;320.77;156.95;;;;;;;;;;5043274;28;20067;-68
2022/01/06 04:14:56;;;;;;;302.08;148.23;;;;;;;;;;5051690;28;20025;-69
2022/01/06 04:17:26;;;;;;;228.77;111.72;;;;;;;;;;5055270;28;20037;-69
2022/01/06 04:19:54;;;;;;;195.80;93.88;;;;;;;;;;5057094;28;20024;-71
2022/01/06 04:22:23;;;;;;;171.75;85.60;;;;;;;;;;5050997;28;20071;-72
2022/01/06 04:24:50;;;;;;;229.98;105.15;;;;;;;;;;5052855;28;20472;-69
2022/01/06 04:27:18;;;;;;;214.57;103.65;;;;;;;;;;5054857;28;20033;-69
2022/01/06 04:29:45;;;;;;;198.32;101.88;;;;;;;;;;5029140;28;20022;-71
2022/01/06 04:32:13;;;;;;;196.90;99.90;;;;;;;;;;5028735;28;20480;-71
2022/01/06 04:34:40;;;;;;;192.80;96.85;;;;;;;;;;5028257;28;20062;-69
2022/01/06 04:37:08;;;;;;;215.65;107.88;;;;;;;;;;5030842;28;20026;-70
2022/01/06 04:39:36;;;;;;;174.77;84.85;;;;;;;;;;5036173;28;20025;-69
2022/01/06 04:42:03;;;;;;;144.82;68.32;;;;;;;;;;5027204;28;20034;-70
2022/01/06 04:44:31;;;;;;;121.65;58.00;;;;;;;;;;5018585;28;20033;-70
2022/01/06 04:47:03;;;;;;;128.50;62.72;;;;;;;;;;5022377;28;20037;-73
2022/01/06 04:49:29;;;;;;;214.98;96.95;;;;;;;;;;5026639;28;20053;-73
2022/01/06 04:51:57;;;;;;;194.48;84.47;;;;;;;;;;5027405;28;20025;-73
2022/01/06 04:54:25;;;;;;;176.73;84.82;;;;;;;;;;5027418;28;20018;-68
2022/01/06 04:56:52;;;;;;;176.70;83.88;;;;;;;;;;5023252;28;20044;-68
2022/01/06 04:59:20;;;;;;;97.00;47.28;;;;;;;;;;5027060;28;20022;-68
2022/01/06 05:01:48;;;;;;;62.17;32.55;;;;;;;;;;5032329;28;20028;-68
2022/01/06 05:04:15;;;;;;;59.70;30.85;;;;;;;;;;5038178;28;20045;-70
2022/01/06 05:06:46;;;;;;;64.43;35.83;;;;;;;;;;5037900;28;20060;-70
2022/01/06 05:09:15;;;;;;;82.28;38.85;;;;;;;;;;5037624;28;20029;-70
2022/01/06 05:11:42;;;;;;;53.30;26.15;;;;;;;;;;5037641;28;20022;-70
2022/01/06 05:14:10;;;;;;;44.60;21.35;;;;;;;;;;5027841;28;20455;-72
2022/01/06 05:16:37;;;;;;;37.13;18.58;;;;;;;;;;5021505;28;20034;-71
2022/01/06 05:19:12;;;;;;;42.38;19.20;;;;;;;;;;5018445;28;20088;-71
2022/01/06 05:21:40;;;;;;;35.58;19.40;;;;;;;;;;5018146;28;20033;-72
2022/01/06 05:24:12;;;;;;;33.13;19.50;;;;;;;;;;5018430;28;20192;-71
2022/01/06 05:26:40;;;;;;;46.45;26.33;;;;;;;;;;5018270;28;20178;-69
2022/01/06 05:29:12;;;;;;;52.65;31.65;;;;;;;;;;5016018;28;20058;-69
2022/01/06 05:31:40;;;;;;;52.25;28.98;;;;;;;;;;5027187;28;20021;-68
2022/01/06 05:34:07;;;;;;;49.92;29.33;;;;;;;;;;5036645;28;20059;-69
2022/01/06 05:36:35;;;;;;;57.63;29.33;;;;;;;;;;5032279;28;20033;-69
2022/01/06 05:39:03;;;;;;;36.92;19.50;;;;;;;;;;5027380;28;20021;-69
2022/01/06 05:41:31;;;;;;;33.38;17.85;;;;;;;;;;5025893;28;20032;-69
2022/01/06 05:43:58;;;;;;;39.38;21.20;;;;;;;;;;5034724;28;20454;-68
2022/01/06 05:46:26;;;;;;;48.25;26.30;;;;;;;;;;5034340;28;20029;-68
2022/01/06 05:48:54;;;;;;;31.02;16.65;;;;;;;;;;5020197;28;20427;-68
2022/01/06 05:51:21;;;;;;;34.05;19.38;;;;;;;;;;5032625;28;20152;-68
2022/01/06 05:53:50;;;;;;;40.50;23.48;;;;;;;;;;5030995;28;20033;-67
2022/01/06 05:56:17;;;;;;;38.10;22.67;;;;;;;;;;5021514;28;20102;-68
2022/01/06 05:58:45;;;;;;;37.47;20.95;;;;;;;;;;5025456;28;20045;-68
2022/01/06 06:01:12;;;;;;;65.28;31.02;;;;;;;;;;5025749;28;20072;-67
2022/01/06 06:03:40;;;;;;;63.03;34.78;;;;;;;;;;5025771;28;20316;-68
2022/01/06 06:06:07;;;;;;;70.65;35.92;;;;;;;;;;5024868;28;20057;-68
2022/01/06 06:08:35;;;;;;;55.53;30.60;;;;;;;;;;5019468;28;20033;-68
2022/01/06 06:11:03;;;;;;;44.95;25.10;;;;;;;;;;5015811;28;20030;-67
2022/01/06 06:13:30;;;;;;;50.47;24.35;;;;;;;;;;5019125;28;20064;-68
2022/01/06 06:15:58;;;;;;;48.03;25.20;;;;;;;;;;5027029;28;20117;-69
2022/01/06 06:18:26;;;;;;;81.32;40.60;;;;;;;;;;5015921;28;20030;-68
2022/01/06 06:20:53;;;;;;;81.90;40.55;;;;;;;;;;5016678;28;20022;-69
2022/01/06 06:23:20;;;;;;;77.80;38.78;;;;;;;;;;5016672;28;20018;-68
2022/01/06 06:25:48;;;;;;;64.05;29.48;;;;;;;;;;5015747;28;20034;-68
2022/01/06 06:28:15;;;;;;;55.85;25.70;;;;;;;;;;5015626;28;20022;-68
2022/01/06 06:30:43;;;;;;;50.60;24.00;;;;;;;;;;5015622;28;20116;-67
2022/01/06 06:33:11;;;;;;;61.08;23.27;;;;;;;;;;5015703;28;20057;-68
2022/01/06 06:35:38;;;;;;;46.92;20.23;;;;;;;;;;5020497;28;20029;-68
2022/01/06 06:38:06;;;;;;;44.55;20.30;;;;;;;;;;5034180;28;20052;-67
2022/01/06 06:40:35;;;;;;;41.75;20.95;;;;;;;;;;5035930;28;20028;-66
2022/01/06 06:43:14;;;;;;;43.72;21.88;;;;;;;;;;5036599;28;20025;-67
2022/01/06 06:45:42;;;;;;;35.08;20.08;;;;;;;;;;5036394;28;20025;-68
2022/01/06 06:48:10;;;;;;;30.75;17.90;;;;;;;;;;5035634;28;20049;-67
2022/01/06 06:50:37;;;;;;;31.75;18.30;;;;;;;;;;5036209;28;20062;-67
2022/01/06 06:53:05;;;;;;;34.58;20.10;;;;;;;;;;5034946;28;20323;-67
2022/01/06 06:55:32;;;;;;;43.15;23.92;;;;;;;;;;5035071;28;20509;-68
2022/01/06 06:58:01;;;;;;;43.28;23.00;;;;;;;;;;5028918;28;20018;-67
2022/01/06 07:00:29;;;;;;;69.97;36.13;;;;;;;;;;5020397;28;20021;-67
2022/01/06 07:02:57;;;;;;;74.20;40.58;;;;;;;;;;5015325;28;20109;-66
2022/01/06 07:05:25;;;;;;;66.05;34.05;;;;;;;;;;5015264;28;20552;-67
2022/01/06 07:07:53;;;;;;;62.70;33.80;;;;;;;;;;5015130;28;20030;-68
2022/01/06 07:10:21;;;;;;;114.53;51.97;;;;;;;;;;5014707;28;20037;-67
2022/01/06 07:12:49;;;;;;;89.72;46.38;;;;;;;;;;5015261;28;20022;-67
2022/01/06 07:15:17;;;;;;;94.88;46.38;;;;;;;;;;5028720;28;20022;-68
2022/01/06 07:17:45;;;;;;;89.88;45.88;;;;;;;;;;5027928;28;20116;-67
2022/01/06 07:20:13;;;;;;;95.40;47.28;;;;;;;;;;5030779;28;20119;-67
2022/01/06 07:22:41;;;;;;;76.85;40.40;;;;;;;;;;5035401;28;20065;-68
2022/01/06 07:25:08;;;;;;;82.90;38.53;;;;;;;;;;5034342;28;20032;-66
2022/01/06 07:27:36;;;;;;;66.28;38.40;;;;;;;;;;5034423;28;20029;-68
2022/01/06 07:30:04;;;;;;;66.05;35.13;;;;;;;;;;5025930;28;20033;-68
2022/01/06 07:32:32;;;;;;;69.85;35.95;;;;;;;;;;5034309;28;20445;-68
2022/01/06 07:35:00;;;;;;;76.13;38.70;;;;;;;;;;5034308;28;20040;-69
2022/01/06 07:37:27;;;;;;;75.13;39.17;;;;;;;;;;5034261;28;20049;-68
2022/01/06 07:39:55;;;;;;;74.68;39.30;;;;;;;;;;5034303;28;20025;-69
2022/01/06 07:42:23;;;;;;;78.60;42.97;;;;;;;;;;5033569;28;20056;-70
2022/01/06 07:44:50;;;;;;;85.10;43.75;;;;;;;;;;5033032;28;20095;-68
2022/01/06 07:47:19;;;;;;;90.32;46.13;;;;;;;;;;5035033;28;20487;-71
2022/01/06 07:49:45;;;;;;;92.53;43.25;;;;;;;;;;5034675;28;20053;-69
2022/01/06 07:52:12;;;;;;;87.53;41.95;;;;;;;;;;5034836;28;20022;-69
2022/01/06 07:54:42;;;;;;;86.82;44.10;;;;;;;;;;5034457;28;20030;-68
2022/01/06 07:57:14;;;;;;;102.53;52.55;;;;;;;;;;5034234;28;20025;-68
2022/01/06 07:59:42;;;;;;;104.22;53.30;;;;;;;;;;5035169;28;20048;-68
2022/01/06 08:02:09;;;;;;;129.02;54.92;;;;;;;;;;5021888;28;20057;-69
2022/01/06 08:04:44;;;;;;;124.93;63.45;;;;;;;;;;5015774;28;20022;-69
2022/01/06 08:07:12;;;;;;;168.80;83.55;;;;;;;;;;5014512;28;20025;-69
2022/01/06 08:09:45;;;;;;;166.65;85.88;;;;;;;;;;5014400;28;20030;-71
2022/01/06 08:12:12;;;;;;;176.52;91.20;;;;;;;;;;5015500;28;20030;-69
2022/01/06 08:14:40;;;;;;;190.80;89.57;;;;;;;;;;5015417;28;20033;-69
2022/01/06 08:17:07;;;;;;;173.95;91.10;;;;;;;;;;5014285;28;20367;-68
2022/01/06 08:19:35;;;;;;;181.02;96.65;;;;;;;;;;5015363;28;20026;-69
2022/01/06 08:22:03;;;;;;;301.05;155.20;;;;;;;;;;5013910;28;20319;-69
2022/01/06 08:24:30;;;;;;;313.83;167.18;;;;;;;;;;5015137;28;20168;-69
2022/01/06 08:26:58;;;;;;;284.00;151.35;;;;;;;;;;5014351;28;20449;-68
2022/01/06 08:29:26;;;;;;;252.98;139.48;;;;;;;;;;5014994;28;20030;-68
2022/01/06 08:31:53;;;;;;;243.43;133.48;;;;;;;;;;5015210;28;20105;-69
2022/01/06 08:34:24;;;;;;;211.30;112.78;;;;;;;;;;5020693;28;20041;-68
2022/01/06 08:36:52;;;;;;;206.00;111.43;;;;;;;;;;5020857;28;20069;-68
2022/01/06 08:39:20;;;;;;;216.60;113.47;;;;;;;;;;5034544;28;20094;-68
2022/01/06 08:41:49;;;;;;;212.25;110.57;;;;;;;;;;5033862;28;20029;-70
2022/01/06 08:44:17;;;;;;;225.60;117.82;;;;;;;;;;5032859;28;20041;-70
2022/01/06 08:46:48;;;;;;;216.73;115.13;;;;;;;;;;5016756;28;20033;-69
2022/01/06 08:49:15;;;;;;;223.40;116.60;;;;;;;;;;5031785;28;20389;-70
2022/01/06 08:51:43;;;;;;;212.52;110.63;;;;;;;;;;5013076;28;20104;-70
2022/01/06 08:54:11;;;;;;;194.90;99.78;;;;;;;;;;5008220;28;20037;-69
2022/01/06 08:56:39;;;;;;;191.52;97.65;;;;;;;;;;5001470;28;20029;-70
2022/01/06 08:59:07;;;;;;;194.13;94.57;;;;;;;;;;5002733;28;20161;-70
2022/01/06 09:01:34;;;;;;;182.57;91.47;;;;;;;;;;5001255;28;20029;-71
2022/01/06 09:04:02;;;;;;;185.57;98.38;;;;;;;;;;5002442;28;20034;-73
2022/01/06 09:06:30;;;;;;;185.38;95.90;;;;;;;;;;5005953;28;20033;-68
2022/01/06 09:09:00;;;;;;;185.70;95.60;;;;;;;;;;5004827;28;20040;-70
2022/01/06 09:11:28;;;;;;;193.00;96.20;;;;;;;;;;5003892;28;20038;-69
2022/01/06 09:13:55;;;;;;;176.15;92.05;;;;;;;;;;5005819;28;20327;-71
2022/01/06 09:16:23;;;;;;;188.20;91.97;;;;;;;;;;4988232;28;20114;-71
2022/01/06 09:18:51;;;;;;;185.82;93.40;;;;;;;;;;4986646;28;20023;-70
2022/01/06 09:21:22;;;;;;;183.85;92.05;;;;;;;;;;4988042;28;20022;-72
2022/01/06 09:23:51;;;;;;;172.00;84.82;;;;;;;;;;4988616;28;20015;-69
2022/01/06 09:26:19;;;;;;;170.38;85.35;;;;;;;;;;4987152;28;20033;-70
2022/01/06 09:28:47;;;;;;;160.25;81.07;;;;;;;;;;4987656;28;20026;-70
2022/01/06 09:31:14;;;;;;;145.48;75.50;;;;;;;;;;4987383;28;20050;-69
2022/01/06 09:33:43;;;;;;;145.65;73.72;;;;;;;;;;4987909;28;20034;-68
2022/01/06 09:36:15;;;;;;;149.90;73.32;;;;;;;;;;5014973;28;20049;-69
2022/01/06 09:38:46;;;;;;;178.50;84.55;;;;;;;;;;5015775;28;20046;-70
2022/01/06 09:41:14;;;;;;;163.23;83.22;;;;;;;;;;5016400;28;20034;-69
2022/01/06 09:43:43;;;;;;;146.05;74.88;;;;;;;;;;5000062;28;20330;-70
2022/01/06 09:46:11;;;;;;;146.73;74.82;;;;;;;;;;5016293;28;20458;-70
2022/01/06 09:48:40;;;;;;;135.70;69.00;;;;;;;;;;5000122;28;20088;-68
2022/01/06 09:51:06;;;;;;;140.68;70.13;;;;;;;;;;5016170;28;20084;-68
2022/01/06 09:53:34;;;;;;;134.18;68.30;;;;;;;;;;4999907;28;20034;-68
2022/01/06 09:56:01;;;;;;;138.75;69.55;;;;;;;;;;4999785;28;20046;-68
2022/01/06 09:58:29;;;;;;;135.82;67.05;;;;;;;;;;5016150;28;20037;-68
2022/01/06 10:00:56;;;;;;;141.45;66.85;;;;;;;;;;5016149;28;20101;-68
2022/01/06 10:03:39;;;;;;;119.05;60.53;;;;;;;;;;5016054;28;20525;-69
2022/01/06 10:06:15;;;;;;;126.80;60.75;;;;;;;;;;5015977;28;20038;-68
2022/01/06 10:08:44;;;;;;;114.18;58.13;;;;;;;;;;5016023;28;20092;-68
2022/01/06 10:11:15;;;;;;;116.82;58.90;;;;;;;;;;4976624;28;20049;-68
2022/01/06 10:13:48;;;;;;;113.82;59.92;;;;;;;;;;4960436;28;20094;-69
2022/01/06 10:16:17;;;;;;;123.43;60.78;;;;;;;;;;4976225;28;20039;-68
2022/01/06 10:18:59;;;;;;;107.70;56.92;;;;;;;;;;4976542;28;20042;-68
2022/01/06 10:21:30;;;;;;;110.93;56.83;;;;;;;;;;4976548;28;20103;-67
2022/01/06 10:24:13;;;;;;;116.70;59.53;;;;;;;;;;4960310;28;20019;-67
2022/01/06 10:27:01;;;;;;;105.28;53.08;;;;;;;;;;4976473;28;20042;-66
2022/01/06 10:29:32;;;;;;;97.93;50.22;;;;;;;;;;4941065;29;20365;-69
2022/01/06 10:32:07;;;;;;;96.13;51.33;;;;;;;;;;4957206;29;20043;-68
2022/01/06 10:34:36;;;;;;;100.28;50.13;;;;;;;;;;4957177;29;20042;-68
2022/01/06 10:37:06;;;;;;;98.05;54.13;;;;;;;;;;4957000;29;20031;-69
2022/01/06 10:39:44;;;;;;;108.22;54.40;;;;;;;;;;4945856;29;20345;-67
2022/01/06 10:42:11;;;;;;;124.30;65.25;;;;;;;;;;4937843;29;20040;-68
2022/01/06 10:44:51;;;;;;;109.15;56.38;;;;;;;;;;4937742;29;20043;-68
2022/01/06 10:47:37;;;;;;;129.05;71.50;;;;;;;;;;4937790;29;20119;-69
2022/01/06 10:50:17;;;;;;;121.25;62.08;;;;;;;;;;4944765;29;20058;-69
2022/01/06 10:52:45;;;;;;;128.60;61.28;;;;;;;;;;4940614;28;20039;-68
2022/01/06 10:55:26;;;;;;;123.63;64.18;;;;;;;;;;4956794;29;20082;-69
2022/01/06 10:58:04;;;;;;;128.32;66.45;;;;;;;;;;4940388;29;20023;-70
2022/01/06 11:00:33;;;;;;;128.98;62.83;;;;;;;;;;4940658;29;20074;-68
2022/01/06 11:03:19;;;;;;;127.25;62.95;;;;;;;;;;4956792;29;20074;-67
2022/01/06 11:05:51;;;;;;;119.05;60.25;;;;;;;;;;4967818;28;20034;-67
2022/01/06 11:08:20;;;;;;;116.03;59.05;;;;;;;;;;5016684;28;20018;-68
2022/01/06 11:11:02;;;;;;;112.32;57.55;;;;;;;;;;5016882;28;20018;-67
2022/01/06 11:13:32;;;;;;;106.22;55.47;;;;;;;;;;5016752;28;20022;-68
2022/01/06 11:16:00;;;;;;;115.65;58.15;;;;;;;;;;5016713;28;20033;-66
2022/01/06 11:18:28;;;;;;;107.28;55.42;;;;;;;;;;5015753;28;20022;-66
2022/01/06 11:21:10;;;;;;;113.82;58.63;;;;;;;;;;5015485;28;20033;-66
2022/01/06 11:23:38;;;;;;;113.28;57.17;;;;;;;;;;5016681;28;20057;-66
2022/01/06 11:26:17;;;;;;;113.25;57.88;;;;;;;;;;5015845;28;20022;-66
2022/01/06 11:28:53;;;;;;;111.20;57.80;;;;;;;;;;5017142;28;20029;-66
2022/01/06 11:31:22;;;;;;;122.55;61.83;;;;;;;;;;5016744;28;20026;-66
2022/01/06 11:33:52;;;;;;;121.15;63.20;;;;;;;;;;5016581;28;20033;-66
2022/01/06 11:36:32;;;;;;;134.18;68.45;;;;;;;;;;5016100;28;20037;-66
2022/01/06 11:39:02;;;;;;;146.77;73.85;;;;;;;;;;5015418;28;20026;-67
2022/01/06 11:41:37;;;;;;;136.95;74.95;;;;;;;;;;4975458;28;20042;-68
2022/01/06 11:44:25;;;;;;;130.00;69.13;;;;;;;;;;4975428;28;20481;-67
2022/01/06 11:46:57;;;;;;;130.43;65.10;;;;;;;;;;4975278;28;20043;-66
2022/01/06 11:49:39;;;;;;;109.47;56.60;;;;;;;;;;4975019;28;20027;-66
2022/01/06 11:52:15;;;;;;;219.25;108.38;;;;;;;;;;4959151;28;20037;-67
2022/01/06 11:54:57;;;;;;;180.70;93.80;;;;;;;;;;4975331;28;20049;-68
2022/01/06 11:57:33;;;;;;;221.10;108.43;;;;;;;;;;4959127;28;20035;-67
2022/01/06 12:00:13;;;;;;;216.68;110.63;;;;;;;;;;4959152;28;20027;-67
2022/01/06 12:02:42;;;;;;;210.77;108.28;;;;;;;;;;4975295;28;20518;-68
2022/01/06 12:05:10;;;;;;;217.40;110.38;;;;;;;;;;4975365;28;20050;-66
2022/01/06 12:07:49;;;;;;;186.35;97.28;;;;;;;;;;4975253;28;20079;-67
2022/01/06 12:10:17;;;;;;;188.43;100.50;;;;;;;;;;4974966;28;20094;-67
2022/01/06 12:12:44;;;;;;;198.07;100.25;;;;;;;;;;4975094;28;20031;-67
2022/01/06 12:15:15;;;;;;;202.52;101.53;;;;;;;;;;4975274;28;20463;-67
2022/01/06 12:17:52;;;;;;;188.88;95.40;;;;;;;;;;4958825;28;20432;-67
2022/01/06 12:20:21;;;;;;;140.10;72.22;;;;;;;;;;4975054;28;20034;-67
2022/01/06 12:22:48;;;;;;;137.35;69.82;;;;;;;;;;4958926;28;20403;-67
2022/01/06 12:25:16;;;;;;;118.05;61.10;;;;;;;;;;4984290;28;20041;-67
2022/01/06 12:27:48;;;;;;;109.97;54.95;;;;;;;;;;5015212;28;20053;-67
2022/01/06 12:30:22;;;;;;;109.15;55.28;;;;;;;;;;5015912;28;20026;-66
2022/01/06 12:33:03;;;;;;;118.03;57.75;;;;;;;;;;5014562;28;20030;-67
2022/01/06 12:35:39;;;;;;;125.65;61.92;;;;;;;;;;5014609;28;20036;-66
2022/01/06 12:38:06;;;;;;;182.23;91.93;;;;;;;;;;5017086;28;20033;-67
2022/01/06 12:40:39;;;;;;;262.77;148.07;;;;;;;;;;5018351;28;20029;-67
2022/01/06 12:43:24;;;;;;;452.70;250.43;;;;;;;;;;5019506;28;20014;-67
2022/01/06 12:46:08;;;;;;;465.45;257.23;;;;;;;;;;5019476;28;20014;-67
2022/01/06 12:48:40;;;;;;;472.20;223.82;;;;;;;;;;5018506;28;20073;-67
2022/01/06 12:51:09;;;;;;;465.10;243.07;;;;;;;;;;5019287;28;20120;-66
2022/01/06 12:53:40;;;;;;;531.30;259.38;;;;;;;;;;5019419;28;20032;-67
2022/01/06 12:56:08;;;;;;;353.27;174.35;;;;;;;;;;5019198;28;20029;-66
2022/01/06 12:58:37;;;;;;;310.50;144.55;;;;;;;;;;5019405;28;20050;-67
2022/01/06 13:01:06;;;;;;;303.73;141.25;;;;;;;;;;5019102;28;20022;-66
2022/01/06 13:03:38;;;;;;;299.83;145.80;;;;;;;;;;5019228;28;20032;-66
2022/01/06 13:06:09;;;;;;;348.83;161.02;;;;;;;;;;5019064;28;20033;-64
2022/01/06 13:08:51;;;;;;;250.88;120.35;;;;;;;;;;5018001;28;20084;-65
2022/01/06 13:11:22;;;;;;;273.52;126.72;;;;;;;;;;5019016;28;20054;-64
2022/01/06 13:13:59;;;;;;;282.85;127.40;;;;;;;;;;5018951;28;20029;-64
2022/01/06 13:16:31;;;;;;;257.10;107.68;;;;;;;;;;5018772;28;20025;-65
2022/01/06 13:19:16;;;;;;;266.92;112.25;;;;;;;;;;5018826;28;20033;-65
2022/01/06 13:21:50;;;;;;;256.52;110.35;;;;;;;;;;5017666;28;20026;-65
2022/01/06 13:24:25;;;;;;;269.70;110.97;;;;;;;;;;5017767;28;20422;-64
2022/01/06 13:27:02;;;;;;;269.58;109.35;;;;;;;;;;5018723;28;20030;-66
2022/01/06 13:29:40;;;;;;;267.00;109.47;;;;;;;;;;5017532;28;20080;-64
2022/01/06 13:32:10;;;;;;;268.00;113.30;;;;;;;;;;5017628;28;20438;-64
2022/01/06 13:34:41;;;;;;;258.10;109.55;;;;;;;;;;5017546;28;20116;-64
2022/01/06 13:37:20;;;;;;;297.52;129.65;;;;;;;;;;5018578;28;20030;-65
2022/01/06 13:39:52;;;;;;;307.90;133.45;;;;;;;;;;5017393;28;20037;-65
2022/01/06 13:42:32;;;;;;;309.35;134.45;;;;;;;;;;5017406;28;20022;-65
2022/01/06 13:45:10;;;;;;;291.58;131.02;;;;;;;;;;5018465;28;20722;-66
2022/01/06 13:47:54;;;;;;;236.02;107.63;;;;;;;;;;5018277;28;20037;-66
2022/01/06 13:53:24;;;;;;;234.60;105.68;;;;;;;;;;5018168;28;20041;-65
2022/01/06 13:56:09;;;;;;;234.38;106.45;;;;;;;;;;5017028;28;20029;-65
2022/01/06 13:58:38;;;;;;;225.05;102.72;;;;;;;;;;5018113;28;20022;-66
2022/01/06 14:01:06;;;;;;;214.75;99.43;;;;;;;;;;5018103;28;20022;-66
2022/01/06 14:03:34;;;;;;;202.32;94.18;;;;;;;;;;5016902;28;20026;-66
2022/01/06 14:06:05;;;;;;;199.00;92.53;;;;;;;;;;5017911;28;20030;-65
2022/01/06 14:08:33;;;;;;;193.25;89.07;;;;;;;;;;5016793;28;20445;-65
2022/01/06 14:11:01;;;;;;;194.77;93.90;;;;;;;;;;5017830;28;20112;-65
2022/01/06 14:13:29;;;;;;;201.70;98.05;;;;;;;;;;5017775;28;20040;-65
2022/01/06 14:15:56;;;;;;;193.50;92.43;;;;;;;;;;5017745;28;20022;-65
2022/01/06 14:18:24;;;;;;;203.15;95.20;;;;;;;;;;5016518;28;20033;-66
2022/01/06 14:20:52;;;;;;;211.63;101.93;;;;;;;;;;5017688;28;20025;-65
2022/01/06 14:23:20;;;;;;;202.43;99.72;;;;;;;;;;5017524;28;20411;-65
2022/01/06 14:25:48;;;;;;;218.98;101.45;;;;;;;;;;5016370;28;20407;-65
2022/01/06 14:28:15;;;;;;;214.80;101.70;;;;;;;;;;5017456;28;20101;-65
2022/01/06 14:30:44;;;;;;;217.52;102.47;;;;;;;;;;5016420;28;20300;-65
2022/01/06 14:33:11;;;;;;;190.23;91.30;;;;;;;;;;5017535;28;20030;-66